Sao Paulo, Brazil
Current Conditions -  °F | °C
As of 1:00 PM on Sunday 23 Nov 2014 (Local Time) from SBMT Reporting Station
Broken Clouds Broken Clouds  
Wind Chill: 77°   Ceiling: 10000
Heat Index: 79°   Visibility: 6mi
Dew Point: 63°   Wind: 7mph
Humidity: 61%   Direction: 300°WNW
Pressure: 30.03"   Gusts: NA
Location:  23.53°S, 46.63°W
Report Text: SBMT 231500Z 30006KT 9999 FEW030 BKN100 25/17 Q1017
Loading
Personal Weather Stations






























Interactive Weather Map New forecast layout! Learn more

10-Day Weather Forecast

Advertisements
Track Severe Weather on mobile